sensor_id;sensor_type;location;lat;lon;timestamp;temperature;humidity
55313;DHT22;46892;45.668;11.756;2023-09-07T00:00:15;20.60;66.70
55313;DHT22;46892;45.668;11.756;2023-09-07T00:02:41;20.70;68.50
55313;DHT22;46892;45.668;11.756;2023-09-07T00:05:07;20.70;68.60
55313;DHT22;46892;45.668;11.756;2023-09-07T00:07:34;20.70;68.20
55313;DHT22;46892;45.668;11.756;2023-09-07T00:10:00;20.60;68.00
55313;DHT22;46892;45.668;11.756;2023-09-07T00:12:26;20.50;68.90
55313;DHT22;46892;45.668;11.756;2023-09-07T00:14:55;20.50;69.00
55313;DHT22;46892;45.668;11.756;2023-09-07T00:17:22;20.40;69.10
55313;DHT22;46892;45.668;11.756;2023-09-07T00:19:48;20.30;69.70
55313;DHT22;46892;45.668;11.756;2023-09-07T00:22:17;20.20;68.70
55313;DHT22;46892;45.668;11.756;2023-09-07T00:24:43;20.20;68.50
55313;DHT22;46892;45.668;11.756;2023-09-07T00:27:10;20.20;68.30
55313;DHT22;46892;45.668;11.756;2023-09-07T00:29:37;20.20;68.30
55313;DHT22;46892;45.668;11.756;2023-09-07T00:32:04;20.20;68.40
55313;DHT22;46892;45.668;11.756;2023-09-07T00:34:30;20.10;68.30
55313;DHT22;46892;45.668;11.756;2023-09-07T00:36:56;20.20;68.40
55313;DHT22;46892;45.668;11.756;2023-09-07T00:39:22;20.10;68.30
55313;DHT22;46892;45.668;11.756;2023-09-07T00:41:48;20.10;68.30
55313;DHT22;46892;45.668;11.756;2023-09-07T00:44:14;20.10;68.30
55313;DHT22;46892;45.668;11.756;2023-09-07T00:46:39;20.20;67.90
55313;DHT22;46892;45.668;11.756;2023-09-07T00:49:05;20.20;67.70
55313;DHT22;46892;45.668;11.756;2023-09-07T00:51:31;20.30;67.40
55313;DHT22;46892;45.668;11.756;2023-09-07T00:53:58;20.40;67.20
55313;DHT22;46892;45.668;11.756;2023-09-07T00:56:26;20.40;67.10
55313;DHT22;46892;45.668;11.756;2023-09-07T00:58:52;20.40;67.30
55313;DHT22;46892;45.668;11.756;2023-09-07T01:01:20;20.50;67.10
55313;DHT22;46892;45.668;11.756;2023-09-07T01:03:46;20.50;67.10
55313;DHT22;46892;45.668;11.756;2023-09-07T01:06:27;20.50;66.70
55313;DHT22;46892;45.668;11.756;2023-09-07T01:08:57;20.50;66.80
55313;DHT22;46892;45.668;11.756;2023-09-07T01:11:23;20.50;67.00
55313;DHT22;46892;45.668;11.756;2023-09-07T01:13:50;20.50;66.90
55313;DHT22;46892;45.668;11.756;2023-09-07T01:16:21;20.50;66.90
55313;DHT22;46892;45.668;11.756;2023-09-07T01:18:47;20.60;66.70
55313;DHT22;46892;45.668;11.756;2023-09-07T01:21:13;20.50;66.80
55313;DHT22;46892;45.668;11.756;2023-09-07T01:23:41;20.50;67.10
55313;DHT22;46892;45.668;11.756;2023-09-07T01:26:08;20.50;67.10
55313;DHT22;46892;45.668;11.756;2023-09-07T01:28:34;20.50;68.40
55313;DHT22;46892;45.668;11.756;2023-09-07T01:31:00;20.50;68.60
55313;DHT22;46892;45.668;11.756;2023-09-07T01:33:29;20.50;69.20
55313;DHT22;46892;45.668;11.756;2023-09-07T01:35:55;20.30;68.60
55313;DHT22;46892;45.668;11.756;2023-09-07T01:38:21;20.30;68.80
55313;DHT22;46892;45.668;11.756;2023-09-07T01:40:46;20.20;69.10
55313;DHT22;46892;45.668;11.756;2023-09-07T01:43:12;20.00;69.70
55313;DHT22;46892;45.668;11.756;2023-09-07T01:45:38;20.10;70.70
55313;DHT22;46892;45.668;11.756;2023-09-07T01:48:11;20.10;70.80
55313;DHT22;46892;45.668;11.756;2023-09-07T01:50:37;20.10;69.20
55313;DHT22;46892;45.668;11.756;2023-09-07T01:53:03;20.10;71.30
55313;DHT22;46892;45.668;11.756;2023-09-07T01:55:32;20.20;70.60
55313;DHT22;46892;45.668;11.756;2023-09-07T01:57:57;20.20;71.70
55313;DHT22;46892;45.668;11.756;2023-09-07T02:00:23;20.20;72.00
55313;DHT22;46892;45.668;11.756;2023-09-07T02:02:49;20.10;71.50
55313;DHT22;46892;45.668;11.756;2023-09-07T02:05:15;20.10;69.10
55313;DHT22;46892;45.668;11.756;2023-09-07T02:07:42;20.00;71.10
55313;DHT22;46892;45.668;11.756;2023-09-07T02:10:08;20.10;71.60
55313;DHT22;46892;45.668;11.756;2023-09-07T02:12:34;20.10;70.70
55313;DHT22;46892;45.668;11.756;2023-09-07T02:15:02;20.10;71.80
55313;DHT22;46892;45.668;11.756;2023-09-07T02:17:28;20.00;72.00
55313;DHT22;46892;45.668;11.756;2023-09-07T02:19:54;19.90;71.70
55313;DHT22;46892;45.668;11.756;2023-09-07T02:22:20;19.90;72.20
55313;DHT22;46892;45.668;11.756;2023-09-07T02:24:46;19.80;72.20
55313;DHT22;46892;45.668;11.756;2023-09-07T02:27:11;19.80;72.60
55313;DHT22;46892;45.668;11.756;2023-09-07T02:29:37;19.80;73.10
55313;DHT22;46892;45.668;11.756;2023-09-07T02:32:03;19.80;72.60
55313;DHT22;46892;45.668;11.756;2023-09-07T02:34:30;19.80;72.70
55313;DHT22;46892;45.668;11.756;2023-09-07T02:36:56;19.80;71.40
55313;DHT22;46892;45.668;11.756;2023-09-07T02:39:22;19.60;73.20
55313;DHT22;46892;45.668;11.756;2023-09-07T02:41:52;19.50;72.70
55313;DHT22;46892;45.668;11.756;2023-09-07T02:44:18;19.30;72.50
55313;DHT22;46892;45.668;11.756;2023-09-07T02:46:44;19.30;72.30
55313;DHT22;46892;45.668;11.756;2023-09-07T02:49:09;19.20;72.10
55313;DHT22;46892;45.668;11.756;2023-09-07T02:51:35;19.20;72.10
55313;DHT22;46892;45.668;11.756;2023-09-07T02:54:02;19.10;72.70
55313;DHT22;46892;45.668;11.756;2023-09-07T02:56:29;19.00;72.10
55313;DHT22;46892;45.668;11.756;2023-09-07T02:58:54;19.00;72.50
55313;DHT22;46892;45.668;11.756;2023-09-07T03:01:20;19.20;74.20
55313;DHT22;46892;45.668;11.756;2023-09-07T03:03:47;19.30;74.20
55313;DHT22;46892;45.668;11.756;2023-09-07T03:06:14;19.20;73.30
55313;DHT22;46892;45.668;11.756;2023-09-07T03:08:42;19.20;72.90
55313;DHT22;46892;45.668;11.756;2023-09-07T03:11:08;19.10;73.10
55313;DHT22;46892;45.668;11.756;2023-09-07T03:13:34;19.00;73.30
55313;DHT22;46892;45.668;11.756;2023-09-07T03:16:01;18.90;73.80
55313;DHT22;46892;45.668;11.756;2023-09-07T03:18:28;18.80;74.00
55313;DHT22;46892;45.668;11.756;2023-09-07T03:20:55;18.80;74.20
55313;DHT22;46892;45.668;11.756;2023-09-07T03:23:23;18.80;74.30
55313;DHT22;46892;45.668;11.756;2023-09-07T03:25:49;18.80;74.50
55313;DHT22;46892;45.668;11.756;2023-09-07T03:28:15;18.80;74.70
55313;DHT22;46892;45.668;11.756;2023-09-07T03:30:41;18.90;73.90
55313;DHT22;46892;45.668;11.756;2023-09-07T03:33:06;18.80;74.10
55313;DHT22;46892;45.668;11.756;2023-09-07T03:35:32;18.80;73.90
55313;DHT22;46892;45.668;11.756;2023-09-07T03:37:58;18.80;74.80
55313;DHT22;46892;45.668;11.756;2023-09-07T03:40:24;18.80;74.40
55313;DHT22;46892;45.668;11.756;2023-09-07T03:42:50;18.80;75.60
55313;DHT22;46892;45.668;11.756;2023-09-07T03:45:16;18.80;74.50
55313;DHT22;46892;45.668;11.756;2023-09-07T03:47:42;18.80;75.70
55313;DHT22;46892;45.668;11.756;2023-09-07T03:50:08;18.80;74.80
55313;DHT22;46892;45.668;11.756;2023-09-07T03:52:34;18.90;74.00
55313;DHT22;46892;45.668;11.756;2023-09-07T03:55:00;18.80;75.20
55313;DHT22;46892;45.668;11.756;2023-09-07T03:57:27;18.80;75.80
55313;DHT22;46892;45.668;11.756;2023-09-07T03:59:53;18.80;74.90
55313;DHT22;46892;45.668;11.756;2023-09-07T04:02:21;18.80;74.50
55313;DHT22;46892;45.668;11.756;2023-09-07T04:04:54;18.70;75.10
55313;DHT22;46892;45.668;11.756;2023-09-07T04:07:23;18.60;74.60
55313;DHT22;46892;45.668;11.756;2023-09-07T04:09:50;18.40;74.70
55313;DHT22;46892;45.668;11.756;2023-09-07T04:12:16;18.50;75.90
55313;DHT22;46892;45.668;11.756;2023-09-07T04:14:42;18.40;76.30
55313;DHT22;46892;45.668;11.756;2023-09-07T04:17:08;18.40;76.80
55313;DHT22;46892;45.668;11.756;2023-09-07T04:19:33;18.40;75.60
55313;DHT22;46892;45.668;11.756;2023-09-07T04:22:00;18.40;76.20
55313;DHT22;46892;45.668;11.756;2023-09-07T04:24:26;18.50;76.40
55313;DHT22;46892;45.668;11.756;2023-09-07T04:26:53;18.50;76.40
55313;DHT22;46892;45.668;11.756;2023-09-07T04:29:18;18.50;75.10
55313;DHT22;46892;45.668;11.756;2023-09-07T04:31:44;18.40;74.70
55313;DHT22;46892;45.668;11.756;2023-09-07T04:34:10;18.60;74.90
55313;DHT22;46892;45.668;11.756;2023-09-07T04:36:36;18.60;75.10
55313;DHT22;46892;45.668;11.756;2023-09-07T04:39:02;18.80;72.80
55313;DHT22;46892;45.668;11.756;2023-09-07T04:41:29;18.80;72.40
55313;DHT22;46892;45.668;11.756;2023-09-07T04:43:54;19.00;71.50
55313;DHT22;46892;45.668;11.756;2023-09-07T04:46:21;19.10;71.10
55313;DHT22;46892;45.668;11.756;2023-09-07T04:48:48;19.20;70.70
55313;DHT22;46892;45.668;11.756;2023-09-07T04:51:13;19.20;70.70
55313;DHT22;46892;45.668;11.756;2023-09-07T04:53:39;19.30;70.30
55313;DHT22;46892;45.668;11.756;2023-09-07T04:56:07;19.30;70.20
55313;DHT22;46892;45.668;11.756;2023-09-07T04:58:33;19.50;69.60
55313;DHT22;46892;45.668;11.756;2023-09-07T05:01:09;19.60;69.20
55313;DHT22;46892;45.668;11.756;2023-09-07T05:03:35;19.70;68.90
55313;DHT22;46892;45.668;11.756;2023-09-07T05:06:01;19.70;69.00
55313;DHT22;46892;45.668;11.756;2023-09-07T05:08:28;19.70;69.20
55313;DHT22;46892;45.668;11.756;2023-09-07T05:10:55;19.70;68.60
55313;DHT22;46892;45.668;11.756;2023-09-07T05:13:22;19.80;68.40
55313;DHT22;46892;45.668;11.756;2023-09-07T05:15:49;19.80;68.50
55313;DHT22;46892;45.668;11.756;2023-09-07T05:18:15;19.80;68.80
55313;DHT22;46892;45.668;11.756;2023-09-07T05:20:41;19.80;68.80
55313;DHT22;46892;45.668;11.756;2023-09-07T05:23:07;19.90;68.70
55313;DHT22;46892;45.668;11.756;2023-09-07T05:25:32;19.90;68.70
55313;DHT22;46892;45.668;11.756;2023-09-07T05:27:58;19.90;68.40
55313;DHT22;46892;45.668;11.756;2023-09-07T05:30:24;19.90;68.90
55313;DHT22;46892;45.668;11.756;2023-09-07T05:32:49;20.00;68.30
55313;DHT22;46892;45.668;11.756;2023-09-07T05:35:15;20.10;68.80
55313;DHT22;46892;45.668;11.756;2023-09-07T05:37:42;20.10;68.10
55313;DHT22;46892;45.668;11.756;2023-09-07T05:40:08;20.20;68.00
55313;DHT22;46892;45.668;11.756;2023-09-07T05:42:34;20.30;68.10
55313;DHT22;46892;45.668;11.756;2023-09-07T05:45:00;20.40;68.50
55313;DHT22;46892;45.668;11.756;2023-09-07T05:47:26;20.60;67.10
55313;DHT22;46892;45.668;11.756;2023-09-07T05:49:52;20.70;66.60
55313;DHT22;46892;45.668;11.756;2023-09-07T05:52:17;20.90;66.10
55313;DHT22;46892;45.668;11.756;2023-09-07T05:54:43;21.10;66.20
55313;DHT22;46892;45.668;11.756;2023-09-07T05:57:09;21.30;66.90
55313;DHT22;46892;45.668;11.756;2023-09-07T05:59:35;21.50;66.40
55313;DHT22;46892;45.668;11.756;2023-09-07T06:02:01;21.70;64.70
55313;DHT22;46892;45.668;11.756;2023-09-07T06:04:26;21.80;65.40
55313;DHT22;46892;45.668;11.756;2023-09-07T06:06:52;21.90;64.80
55313;DHT22;46892;45.668;11.756;2023-09-07T06:09:18;21.90;64.50
55313;DHT22;46892;45.668;11.756;2023-09-07T06:11:44;22.10;63.90
55313;DHT22;46892;45.668;11.756;2023-09-07T06:14:09;22.20;63.70
55313;DHT22;46892;45.668;11.756;2023-09-07T06:16:35;22.40;64.00
55313;DHT22;46892;45.668;11.756;2023-09-07T06:19:01;22.50;64.70
55313;DHT22;46892;45.668;11.756;2023-09-07T06:21:27;22.60;63.30
55313;DHT22;46892;45.668;11.756;2023-09-07T06:23:53;22.70;63.60
55313;DHT22;46892;45.668;11.756;2023-09-07T06:26:19;22.70;63.70
55313;DHT22;46892;45.668;11.756;2023-09-07T06:28:45;22.70;64.60
55313;DHT22;46892;45.668;11.756;2023-09-07T06:31:11;22.80;61.90
55313;DHT22;46892;45.668;11.756;2023-09-07T06:33:36;22.90;64.40
55313;DHT22;46892;45.668;11.756;2023-09-07T06:36:02;23.00;63.00
55313;DHT22;46892;45.668;11.756;2023-09-07T06:38:28;23.20;62.60
55313;DHT22;46892;45.668;11.756;2023-09-07T06:40:54;23.20;61.90
55313;DHT22;46892;45.668;11.756;2023-09-07T06:43:19;23.30;61.70
55313;DHT22;46892;45.668;11.756;2023-09-07T06:45:45;23.50;61.30
55313;DHT22;46892;45.668;11.756;2023-09-07T06:48:11;23.60;61.60
55313;DHT22;46892;45.668;11.756;2023-09-07T06:50:38;23.70;61.70
55313;DHT22;46892;45.668;11.756;2023-09-07T06:53:03;23.80;60.40
55313;DHT22;46892;45.668;11.756;2023-09-07T06:55:29;23.90;60.60
55313;DHT22;46892;45.668;11.756;2023-09-07T06:57:55;24.10;61.30
55313;DHT22;46892;45.668;11.756;2023-09-07T07:00:21;24.30;60.70
55313;DHT22;46892;45.668;11.756;2023-09-07T07:02:47;24.30;60.30
55313;DHT22;46892;45.668;11.756;2023-09-07T07:05:13;24.50;59.90
55313;DHT22;46892;45.668;11.756;2023-09-07T07:07:39;24.60;58.90
55313;DHT22;46892;45.668;11.756;2023-09-07T07:10:06;24.80;59.30
55313;DHT22;46892;45.668;11.756;2023-09-07T07:12:32;24.80;58.50
55313;DHT22;46892;45.668;11.756;2023-09-07T07:15:01;24.90;58.30
55313;DHT22;46892;45.668;11.756;2023-09-07T07:17:30;25.00;57.40
55313;DHT22;46892;45.668;11.756;2023-09-07T07:19:56;25.00;57.20
55313;DHT22;46892;45.668;11.756;2023-09-07T07:22:21;25.10;58.40
55313;DHT22;46892;45.668;11.756;2023-09-07T07:24:47;25.20;56.30
55313;DHT22;46892;45.668;11.756;2023-09-07T07:27:13;25.10;57.10
55313;DHT22;46892;45.668;11.756;2023-09-07T07:29:38;25.10;56.40
55313;DHT22;46892;45.668;11.756;2023-09-07T07:32:04;25.20;57.90
55313;DHT22;46892;45.668;11.756;2023-09-07T07:34:30;25.20;56.80
55313;DHT22;46892;45.668;11.756;2023-09-07T07:36:56;25.30;55.60
55313;DHT22;46892;45.668;11.756;2023-09-07T07:39:21;25.50;58.20
55313;DHT22;46892;45.668;11.756;2023-09-07T07:41:47;25.50;55.80
55313;DHT22;46892;45.668;11.756;2023-09-07T07:44:13;25.70;56.20
55313;DHT22;46892;45.668;11.756;2023-09-07T07:46:39;25.70;55.00
55313;DHT22;46892;45.668;11.756;2023-09-07T07:49:04;25.80;54.30
55313;DHT22;46892;45.668;11.756;2023-09-07T07:51:30;25.70;54.50
55313;DHT22;46892;45.668;11.756;2023-09-07T07:53:56;25.80;55.20
55313;DHT22;46892;45.668;11.756;2023-09-07T07:56:23;25.80;55.20
55313;DHT22;46892;45.668;11.756;2023-09-07T07:58:50;25.80;52.80
55313;DHT22;46892;45.668;11.756;2023-09-07T08:01:17;25.90;52.00
55313;DHT22;46892;45.668;11.756;2023-09-07T08:03:43;26.00;52.60
55313;DHT22;46892;45.668;11.756;2023-09-07T08:06:10;25.90;51.90
55313;DHT22;46892;45.668;11.756;2023-09-07T08:08:37;26.10;52.20
55313;DHT22;46892;45.668;11.756;2023-09-07T08:11:03;26.20;52.70
55313;DHT22;46892;45.668;11.756;2023-09-07T08:13:32;26.20;50.90
55313;DHT22;46892;45.668;11.756;2023-09-07T08:16:03;26.30;51.70
55313;DHT22;46892;45.668;11.756;2023-09-07T08:18:29;26.30;52.40
55313;DHT22;46892;45.668;11.756;2023-09-07T08:20:57;26.50;50.10
55313;DHT22;46892;45.668;11.756;2023-09-07T08:23:22;26.60;51.50
55313;DHT22;46892;45.668;11.756;2023-09-07T08:25:51;26.70;51.20
55313;DHT22;46892;45.668;11.756;2023-09-07T08:28:17;26.80;51.40
55313;DHT22;46892;45.668;11.756;2023-09-07T08:30:44;26.80;51.00
55313;DHT22;46892;45.668;11.756;2023-09-07T08:33:10;26.90;51.00
55313;DHT22;46892;45.668;11.756;2023-09-07T08:35:36;26.90;48.90
55313;DHT22;46892;45.668;11.756;2023-09-07T08:38:03;26.90;50.60
55313;DHT22;46892;45.668;11.756;2023-09-07T08:40:34;26.90;50.60
55313;DHT22;46892;45.668;11.756;2023-09-07T08:43:04;26.80;48.40
55313;DHT22;46892;45.668;11.756;2023-09-07T08:45:31;26.90;50.80
55313;DHT22;46892;45.668;11.756;2023-09-07T08:48:02;27.00;51.40
55313;DHT22;46892;45.668;11.756;2023-09-07T08:50:30;27.20;51.90
55313;DHT22;46892;45.668;11.756;2023-09-07T08:52:56;27.20;49.60
55313;DHT22;46892;45.668;11.756;2023-09-07T08:55:25;27.30;48.10
55313;DHT22;46892;45.668;11.756;2023-09-07T08:57:51;27.30;47.10
55313;DHT22;46892;45.668;11.756;2023-09-07T09:00:17;27.30;49.40
55313;DHT22;46892;45.668;11.756;2023-09-07T09:02:48;27.30;48.40
55313;DHT22;46892;45.668;11.756;2023-09-07T09:05:15;27.20;47.10
55313;DHT22;46892;45.668;11.756;2023-09-07T09:07:41;27.20;46.90
55313;DHT22;46892;45.668;11.756;2023-09-07T09:10:07;27.20;47.40
55313;DHT22;46892;45.668;11.756;2023-09-07T09:12:34;27.20;49.60
55313;DHT22;46892;45.668;11.756;2023-09-07T09:15:00;27.20;47.70
55313;DHT22;46892;45.668;11.756;2023-09-07T09:17:29;27.20;48.20
55313;DHT22;46892;45.668;11.756;2023-09-07T09:19:55;27.20;48.90
55313;DHT22;46892;45.668;11.756;2023-09-07T09:22:21;27.20;48.70
55313;DHT22;46892;45.668;11.756;2023-09-07T09:24:50;27.30;50.40
55313;DHT22;46892;45.668;11.756;2023-09-07T09:27:16;27.30;48.00
55313;DHT22;46892;45.668;11.756;2023-09-07T09:29:42;27.30;48.10
55313;DHT22;46892;45.668;11.756;2023-09-07T09:32:10;27.30;46.90
55313;DHT22;46892;45.668;11.756;2023-09-07T09:34:39;27.30;48.20
55313;DHT22;46892;45.668;11.756;2023-09-07T09:37:13;27.30;48.80
55313;DHT22;46892;45.668;11.756;2023-09-07T09:39:40;27.30;47.10
55313;DHT22;46892;45.668;11.756;2023-09-07T09:42:06;27.20;48.40
55313;DHT22;46892;45.668;11.756;2023-09-07T09:44:32;27.20;48.90
55313;DHT22;46892;45.668;11.756;2023-09-07T09:46:59;27.30;49.70
55313;DHT22;46892;45.668;11.756;2023-09-07T09:49:26;27.30;45.60
55313;DHT22;46892;45.668;11.756;2023-09-07T09:51:53;27.30;46.30
55313;DHT22;46892;45.668;11.756;2023-09-07T09:54:20;27.30;47.70
55313;DHT22;46892;45.668;11.756;2023-09-07T09:56:46;27.30;46.10
55313;DHT22;46892;45.668;11.756;2023-09-07T09:59:13;27.30;46.60
55313;DHT22;46892;45.668;11.756;2023-09-07T10:01:48;27.30;46.20
55313;DHT22;46892;45.668;11.756;2023-09-07T10:04:17;27.30;45.60
55313;DHT22;46892;45.668;11.756;2023-09-07T10:07:10;27.50;45.50
55313;DHT22;46892;45.668;11.756;2023-09-07T10:09:38;27.60;46.10
55313;DHT22;46892;45.668;11.756;2023-09-07T10:12:04;27.60;45.10
55313;DHT22;46892;45.668;11.756;2023-09-07T10:14:42;27.60;43.20
55313;DHT22;46892;45.668;11.756;2023-09-07T10:17:10;27.60;43.10
55313;DHT22;46892;45.668;11.756;2023-09-07T10:19:47;27.50;42.40
55313;DHT22;46892;45.668;11.756;2023-09-07T10:22:22;27.70;43.60
55313;DHT22;46892;45.668;11.756;2023-09-07T10:24:59;27.60;45.00
55313;DHT22;46892;45.668;11.756;2023-09-07T10:27:25;27.70;45.00
55313;DHT22;46892;45.668;11.756;2023-09-07T10:30:09;27.70;45.70
55313;DHT22;46892;45.668;11.756;2023-09-07T10:32:39;27.60;45.30
55313;DHT22;46892;45.668;11.756;2023-09-07T10:35:14;27.70;48.40
55313;DHT22;46892;45.668;11.756;2023-09-07T10:37:41;27.70;48.70
55313;DHT22;46892;45.668;11.756;2023-09-07T10:40:07;27.70;43.90
55313;DHT22;46892;45.668;11.756;2023-09-07T10:42:37;27.70;44.80
55313;DHT22;46892;45.668;11.756;2023-09-07T10:45:14;27.70;46.60
55313;DHT22;46892;45.668;11.756;2023-09-07T10:47:45;27.70;45.60
55313;DHT22;46892;45.668;11.756;2023-09-07T10:50:13;27.70;43.80
55313;DHT22;46892;45.668;11.756;2023-09-07T10:52:41;27.70;42.00
55313;DHT22;46892;45.668;11.756;2023-09-07T10:55:10;27.70;44.20
55313;DHT22;46892;45.668;11.756;2023-09-07T10:57:46;27.80;44.40
55313;DHT22;46892;45.668;11.756;2023-09-07T11:00:13;27.70;44.20
55313;DHT22;46892;45.668;11.756;2023-09-07T11:02:43;27.70;45.10
55313;DHT22;46892;45.668;11.756;2023-09-07T11:05:09;27.70;43.20
55313;DHT22;46892;45.668;11.756;2023-09-07T11:07:38;27.70;42.20
55313;DHT22;46892;45.668;11.756;2023-09-07T11:10:07;27.70;44.40
55313;DHT22;46892;45.668;11.756;2023-09-07T11:12:37;27.80;46.30
55313;DHT22;46892;45.668;11.756;2023-09-07T11:15:04;27.90;44.90
55313;DHT22;46892;45.668;11.756;2023-09-07T11:17:30;27.90;42.50
55313;DHT22;46892;45.668;11.756;2023-09-07T11:19:56;27.90;43.30
55313;DHT22;46892;45.668;11.756;2023-09-07T11:22:22;27.90;43.80
55313;DHT22;46892;45.668;11.756;2023-09-07T11:24:48;28.00;42.70
55313;DHT22;46892;45.668;11.756;2023-09-07T11:27:17;28.00;42.10
55313;DHT22;46892;45.668;11.756;2023-09-07T11:29:52;28.00;41.90
55313;DHT22;46892;45.668;11.756;2023-09-07T11:32:18;28.00;42.10
55313;DHT22;46892;45.668;11.756;2023-09-07T11:34:51;28.00;42.10
55313;DHT22;46892;45.668;11.756;2023-09-07T11:37:22;27.90;40.00
55313;DHT22;46892;45.668;11.756;2023-09-07T11:39:49;27.90;42.10
55313;DHT22;46892;45.668;11.756;2023-09-07T11:42:15;27.80;44.30
55313;DHT22;46892;45.668;11.756;2023-09-07T11:44:40;27.80;42.80
55313;DHT22;46892;45.668;11.756;2023-09-07T11:47:06;27.90;44.50
55313;DHT22;46892;45.668;11.756;2023-09-07T11:49:32;27.90;43.50
55313;DHT22;46892;45.668;11.756;2023-09-07T11:51:58;28.10;44.10
55313;DHT22;46892;45.668;11.756;2023-09-07T11:54:24;28.20;45.80
55313;DHT22;46892;45.668;11.756;2023-09-07T11:56:50;28.20;41.10
55313;DHT22;46892;45.668;11.756;2023-09-07T11:59:15;28.30;42.50
55313;DHT22;46892;45.668;11.756;2023-09-07T12:01:43;28.30;41.60
55313;DHT22;46892;45.668;11.756;2023-09-07T12:04:09;28.20;41.40
55313;DHT22;46892;45.668;11.756;2023-09-07T12:06:35;28.20;40.60
55313;DHT22;46892;45.668;11.756;2023-09-07T12:09:05;28.10;41.90
55313;DHT22;46892;45.668;11.756;2023-09-07T12:11:35;28.20;41.90
55313;DHT22;46892;45.668;11.756;2023-09-07T12:14:01;28.20;39.90
55313;DHT22;46892;45.668;11.756;2023-09-07T12:16:27;28.20;40.00
55313;DHT22;46892;45.668;11.756;2023-09-07T12:18:54;28.10;41.40
55313;DHT22;46892;45.668;11.756;2023-09-07T12:21:20;28.10;41.10
55313;DHT22;46892;45.668;11.756;2023-09-07T12:23:46;28.20;41.30
55313;DHT22;46892;45.668;11.756;2023-09-07T12:26:12;28.30;44.70
55313;DHT22;46892;45.668;11.756;2023-09-07T12:28:39;28.20;41.80
55313;DHT22;46892;45.668;11.756;2023-09-07T12:31:05;28.20;41.40
55313;DHT22;46892;45.668;11.756;2023-09-07T12:33:31;28.20;42.70
55313;DHT22;46892;45.668;11.756;2023-09-07T12:35:58;28.20;41.50
55313;DHT22;46892;45.668;11.756;2023-09-07T12:38:25;28.20;42.70
55313;DHT22;46892;45.668;11.756;2023-09-07T12:40:54;28.20;43.10
55313;DHT22;46892;45.668;11.756;2023-09-07T12:43:20;28.30;43.00
55313;DHT22;46892;45.668;11.756;2023-09-07T12:45:46;28.30;43.50
55313;DHT22;46892;45.668;11.756;2023-09-07T12:48:12;28.40;43.90
55313;DHT22;46892;45.668;11.756;2023-09-07T12:50:38;28.40;41.50
55313;DHT22;46892;45.668;11.756;2023-09-07T12:53:06;28.30;43.70
55313;DHT22;46892;45.668;11.756;2023-09-07T12:55:32;28.30;44.10
55313;DHT22;46892;45.668;11.756;2023-09-07T12:57:59;28.30;43.30
55313;DHT22;46892;45.668;11.756;2023-09-07T13:00:26;28.30;41.90
55313;DHT22;46892;45.668;11.756;2023-09-07T13:02:52;28.30;42.20
55313;DHT22;46892;45.668;11.756;2023-09-07T13:05:19;28.30;42.00
55313;DHT22;46892;45.668;11.756;2023-09-07T13:07:45;28.30;40.50
55313;DHT22;46892;45.668;11.756;2023-09-07T13:10:11;28.20;42.00
55313;DHT22;46892;45.668;11.756;2023-09-07T13:12:37;28.30;42.70
55313;DHT22;46892;45.668;11.756;2023-09-07T13:15:04;28.30;42.80
55313;DHT22;46892;45.668;11.756;2023-09-07T13:17:30;28.30;40.10
55313;DHT22;46892;45.668;11.756;2023-09-07T13:19:56;28.50;43.20
55313;DHT22;46892;45.668;11.756;2023-09-07T13:22:22;28.50;40.30
55313;DHT22;46892;45.668;11.756;2023-09-07T13:24:48;28.50;42.40
55313;DHT22;46892;45.668;11.756;2023-09-07T13:27:15;28.60;40.50
55313;DHT22;46892;45.668;11.756;2023-09-07T13:29:41;28.60;40.20
55313;DHT22;46892;45.668;11.756;2023-09-07T13:32:07;28.50;42.50
55313;DHT22;46892;45.668;11.756;2023-09-07T13:34:32;28.50;41.00
55313;DHT22;46892;45.668;11.756;2023-09-07T13:36:58;28.50;41.10
55313;DHT22;46892;45.668;11.756;2023-09-07T13:39:24;28.60;42.30
55313;DHT22;46892;45.668;11.756;2023-09-07T13:41:50;28.70;43.40
55313;DHT22;46892;45.668;11.756;2023-09-07T13:44:16;28.60;42.40
55313;DHT22;46892;45.668;11.756;2023-09-07T13:46:43;28.60;41.40
55313;DHT22;46892;45.668;11.756;2023-09-07T13:49:10;28.70;41.70
55313;DHT22;46892;45.668;11.756;2023-09-07T13:51:35;28.60;42.10
55313;DHT22;46892;45.668;11.756;2023-09-07T13:54:05;28.60;42.60
55313;DHT22;46892;45.668;11.756;2023-09-07T13:56:32;28.50;40.90
55313;DHT22;46892;45.668;11.756;2023-09-07T13:58:59;28.60;38.90
55313;DHT22;46892;45.668;11.756;2023-09-07T14:01:25;28.50;39.00
55313;DHT22;46892;45.668;11.756;2023-09-07T14:03:51;28.50;39.00
55313;DHT22;46892;45.668;11.756;2023-09-07T14:06:17;28.60;41.10
55313;DHT22;46892;45.668;11.756;2023-09-07T14:08:46;28.50;40.50
55313;DHT22;46892;45.668;11.756;2023-09-07T14:11:14;28.60;41.30
55313;DHT22;46892;45.668;11.756;2023-09-07T14:13:40;28.70;41.60
55313;DHT22;46892;45.668;11.756;2023-09-07T14:16:06;28.60;41.80
55313;DHT22;46892;45.668;11.756;2023-09-07T14:18:32;28.60;42.20
55313;DHT22;46892;45.668;11.756;2023-09-07T14:20:58;28.60;42.80
55313;DHT22;46892;45.668;11.756;2023-09-07T14:23:26;28.70;42.70
55313;DHT22;46892;45.668;11.756;2023-09-07T14:25:53;28.70;43.60
55313;DHT22;46892;45.668;11.756;2023-09-07T14:28:18;28.70;44.20
55313;DHT22;46892;45.668;11.756;2023-09-07T14:30:44;28.70;42.60
55313;DHT22;46892;45.668;11.756;2023-09-07T14:33:10;28.60;42.90
55313;DHT22;46892;45.668;11.756;2023-09-07T14:35:35;28.60;44.40
55313;DHT22;46892;45.668;11.756;2023-09-07T14:38:01;28.60;44.50
55313;DHT22;46892;45.668;11.756;2023-09-07T14:40:28;28.60;41.90
55313;DHT22;46892;45.668;11.756;2023-09-07T14:42:53;28.50;43.50
55313;DHT22;46892;45.668;11.756;2023-09-07T14:45:23;28.50;41.40
55313;DHT22;46892;45.668;11.756;2023-09-07T14:47:48;28.60;42.50
55313;DHT22;46892;45.668;11.756;2023-09-07T14:50:14;28.60;41.10
55313;DHT22;46892;45.668;11.756;2023-09-07T14:52:40;28.60;42.00
55313;DHT22;46892;45.668;11.756;2023-09-07T14:55:08;28.70;42.20
55313;DHT22;46892;45.668;11.756;2023-09-07T14:57:34;28.70;41.60
55313;DHT22;46892;45.668;11.756;2023-09-07T15:00:00;28.70;40.80
55313;DHT22;46892;45.668;11.756;2023-09-07T15:02:26;28.70;40.00
55313;DHT22;46892;45.668;11.756;2023-09-07T15:04:52;28.70;41.80
55313;DHT22;46892;45.668;11.756;2023-09-07T15:07:17;28.60;41.20
55313;DHT22;46892;45.668;11.756;2023-09-07T15:09:44;28.70;42.80
55313;DHT22;46892;45.668;11.756;2023-09-07T15:12:10;28.60;39.70